sensor_id;sensor_type;location;lat;lon;timestamp;P1;durP1;ratioP1;P2;durP2;ratioP2
74100;SDS011;62462;52.530;21.682;2023-12-20T00:01:35;14.50;;;9.15;;
74100;SDS011;62462;52.530;21.682;2023-12-20T00:04:01;14.98;;;9.55;;
74100;SDS011;62462;52.530;21.682;2023-12-20T00:06:27;12.38;;;8.40;;
74100;SDS011;62462;52.530;21.682;2023-12-20T00:08:53;14.75;;;9.10;;
74100;SDS011;62462;52.530;21.682;2023-12-20T00:11:19;13.43;;;8.63;;
74100;SDS011;62462;52.530;21.682;2023-12-20T00:13:44;13.98;;;8.80;;
74100;SDS011;62462;52.530;21.682;2023-12-20T00:16:10;14.60;;;7.97;;
74100;SDS011;62462;52.530;21.682;2023-12-20T00:18:36;12.55;;;8.10;;
74100;SDS011;62462;52.530;21.682;2023-12-20T00:21:01;14.50;;;8.27;;
74100;SDS011;62462;52.530;21.682;2023-12-20T00:23:27;14.77;;;8.98;;
74100;SDS011;62462;52.530;21.682;2023-12-20T00:25:53;12.13;;;8.23;;
74100;SDS011;62462;52.530;21.682;2023-12-20T00:28:18;12.93;;;8.32;;
74100;SDS011;62462;52.530;21.682;2023-12-20T00:30:44;13.35;;;8.27;;
74100;SDS011;62462;52.530;21.682;2023-12-20T00:33:10;11.02;;;7.10;;
74100;SDS011;62462;52.530;21.682;2023-12-20T00:35:35;11.88;;;7.53;;
74100;SDS011;62462;52.530;21.682;2023-12-20T00:38:01;12.13;;;7.70;;
74100;SDS011;62462;52.530;21.682;2023-12-20T00:40:27;13.73;;;7.88;;
74100;SDS011;62462;52.530;21.682;2023-12-20T00:42:53;10.82;;;7.70;;
74100;SDS011;62462;52.530;21.682;2023-12-20T00:45:18;11.38;;;7.18;;
74100;SDS011;62462;52.530;21.682;2023-12-20T00:47:44;14.88;;;8.10;;
74100;SDS011;62462;52.530;21.682;2023-12-20T00:50:10;11.57;;;6.65;;
74100;SDS011;62462;52.530;21.682;2023-12-20T00:52:36;10.90;;;7.00;;
74100;SDS011;62462;52.530;21.682;2023-12-20T00:55:02;10.70;;;7.28;;
74100;SDS011;62462;52.530;21.682;2023-12-20T00:57:28;10.10;;;7.05;;
74100;SDS011;62462;52.530;21.682;2023-12-20T00:59:54;11.20;;;7.07;;
74100;SDS011;62462;52.530;21.682;2023-12-20T01:02:20;10.75;;;7.20;;
74100;SDS011;62462;52.530;21.682;2023-12-20T01:04:45;8.63;;;5.50;;
74100;SDS011;62462;52.530;21.682;2023-12-20T01:07:11;10.40;;;6.30;;
74100;SDS011;62462;52.530;21.682;2023-12-20T01:09:37;8.50;;;6.03;;
74100;SDS011;62462;52.530;21.682;2023-12-20T01:12:03;9.15;;;5.60;;
74100;SDS011;62462;52.530;21.682;2023-12-20T01:14:29;9.13;;;6.35;;
74100;SDS011;62462;52.530;21.682;2023-12-20T01:16:54;8.93;;;6.32;;
74100;SDS011;62462;52.530;21.682;2023-12-20T01:19:20;10.35;;;5.88;;
74100;SDS011;62462;52.530;21.682;2023-12-20T01:21:46;10.02;;;6.53;;
74100;SDS011;62462;52.530;21.682;2023-12-20T01:24:12;7.93;;;5.80;;
74100;SDS011;62462;52.530;21.682;2023-12-20T01:26:37;8.98;;;6.38;;
74100;SDS011;62462;52.530;21.682;2023-12-20T01:29:03;9.45;;;6.47;;
74100;SDS011;62462;52.530;21.682;2023-12-20T01:31:29;7.75;;;5.72;;
74100;SDS011;62462;52.530;21.682;2023-12-20T01:33:54;9.05;;;5.70;;
74100;SDS011;62462;52.530;21.682;2023-12-20T01:36:20;9.57;;;6.30;;
74100;SDS011;62462;52.530;21.682;2023-12-20T01:38:46;9.38;;;6.43;;
74100;SDS011;62462;52.530;21.682;2023-12-20T01:41:12;8.15;;;5.60;;
74100;SDS011;62462;52.530;21.682;2023-12-20T01:43:37;8.57;;;5.78;;
74100;SDS011;62462;52.530;21.682;2023-12-20T01:46:03;9.55;;;5.47;;
74100;SDS011;62462;52.530;21.682;2023-12-20T01:48:30;8.55;;;5.45;;
74100;SDS011;62462;52.530;21.682;2023-12-20T01:50:59;7.55;;;5.38;;
74100;SDS011;62462;52.530;21.682;2023-12-20T01:53:26;7.22;;;5.18;;
74100;SDS011;62462;52.530;21.682;2023-12-20T01:55:54;6.68;;;4.82;;
74100;SDS011;62462;52.530;21.682;2023-12-20T01:58:21;7.50;;;5.15;;
74100;SDS011;62462;52.530;21.682;2023-12-20T02:00:48;6.97;;;4.60;;
74100;SDS011;62462;52.530;21.682;2023-12-20T02:03:14;7.63;;;4.88;;
74100;SDS011;62462;52.530;21.682;2023-12-20T02:05:41;7.15;;;5.15;;
74100;SDS011;62462;52.530;21.682;2023-12-20T02:08:07;9.77;;;4.97;;
74100;SDS011;62462;52.530;21.682;2023-12-20T02:10:34;6.75;;;4.40;;
74100;SDS011;62462;52.530;21.682;2023-12-20T02:12:59;6.45;;;4.40;;
74100;SDS011;62462;52.530;21.682;2023-12-20T02:15:25;6.72;;;4.30;;
74100;SDS011;62462;52.530;21.682;2023-12-20T02:17:51;7.07;;;4.72;;
74100;SDS011;62462;52.530;21.682;2023-12-20T02:20:17;7.25;;;4.78;;
74100;SDS011;62462;52.530;21.682;2023-12-20T02:22:43;6.95;;;4.47;;
74100;SDS011;62462;52.530;21.682;2023-12-20T02:25:08;8.00;;;5.03;;
74100;SDS011;62462;52.530;21.682;2023-12-20T02:27:34;6.28;;;4.60;;
74100;SDS011;62462;52.530;21.682;2023-12-20T02:30:00;5.95;;;3.75;;
74100;SDS011;62462;52.530;21.682;2023-12-20T02:32:26;6.13;;;3.95;;
74100;SDS011;62462;52.530;21.682;2023-12-20T02:34:52;6.88;;;3.88;;
74100;SDS011;62462;52.530;21.682;2023-12-20T02:37:18;5.72;;;3.65;;
74100;SDS011;62462;52.530;21.682;2023-12-20T02:39:44;5.28;;;3.80;;
74100;SDS011;62462;52.530;21.682;2023-12-20T02:42:10;5.72;;;3.65;;
74100;SDS011;62462;52.530;21.682;2023-12-20T02:44:35;6.35;;;3.78;;
74100;SDS011;62462;52.530;21.682;2023-12-20T02:47:01;4.68;;;3.30;;
74100;SDS011;62462;52.530;21.682;2023-12-20T02:49:27;6.22;;;4.00;;
74100;SDS011;62462;52.530;21.682;2023-12-20T02:51:53;5.07;;;3.40;;
74100;SDS011;62462;52.530;21.682;2023-12-20T02:54:19;5.28;;;3.75;;
74100;SDS011;62462;52.530;21.682;2023-12-20T02:56:44;5.47;;;3.35;;
74100;SDS011;62462;52.530;21.682;2023-12-20T02:59:10;6.65;;;4.95;;
74100;SDS011;62462;52.530;21.682;2023-12-20T03:01:41;6.95;;;3.90;;
74100;SDS011;62462;52.530;21.682;2023-12-20T03:04:08;5.53;;;4.25;;
74100;SDS011;62462;52.530;21.682;2023-12-20T03:06:33;6.72;;;3.85;;
74100;SDS011;62462;52.530;21.682;2023-12-20T03:08:59;5.80;;;4.03;;
74100;SDS011;62462;52.530;21.682;2023-12-20T03:11:28;7.45;;;4.53;;
74100;SDS011;62462;52.530;21.682;2023-12-20T03:13:54;6.05;;;4.47;;
74100;SDS011;62462;52.530;21.682;2023-12-20T03:16:20;6.45;;;3.80;;
74100;SDS011;62462;52.530;21.682;2023-12-20T03:18:45;5.80;;;3.78;;
74100;SDS011;62462;52.530;21.682;2023-12-20T03:21:11;6.55;;;4.15;;
74100;SDS011;62462;52.530;21.682;2023-12-20T03:23:37;4.28;;;3.30;;
74100;SDS011;62462;52.530;21.682;2023-12-20T03:26:03;5.72;;;3.70;;
74100;SDS011;62462;52.530;21.682;2023-12-20T03:28:31;6.28;;;4.10;;
74100;SDS011;62462;52.530;21.682;2023-12-20T03:30:57;6.40;;;4.10;;
74100;SDS011;62462;52.530;21.682;2023-12-20T03:33:23;7.00;;;4.22;;
74100;SDS011;62462;52.530;21.682;2023-12-20T03:35:48;7.07;;;4.65;;
74100;SDS011;62462;52.530;21.682;2023-12-20T03:38:14;8.60;;;4.30;;
74100;SDS011;62462;52.530;21.682;2023-12-20T03:40:40;6.35;;;4.75;;
74100;SDS011;62462;52.530;21.682;2023-12-20T03:43:05;7.53;;;4.88;;
74100;SDS011;62462;52.530;21.682;2023-12-20T03:45:31;7.10;;;4.75;;
74100;SDS011;62462;52.530;21.682;2023-12-20T03:47:57;8.88;;;5.18;;
74100;SDS011;62462;52.530;21.682;2023-12-20T03:50:22;6.90;;;4.60;;
74100;SDS011;62462;52.530;21.682;2023-12-20T03:52:48;7.90;;;4.60;;
74100;SDS011;62462;52.530;21.682;2023-12-20T03:55:14;6.88;;;4.50;;
74100;SDS011;62462;52.530;21.682;2023-12-20T03:57:40;7.10;;;4.78;;
74100;SDS011;62462;52.530;21.682;2023-12-20T04:00:10;6.70;;;4.32;;
74100;SDS011;62462;52.530;21.682;2023-12-20T04:02:36;6.30;;;4.30;;
74100;SDS011;62462;52.530;21.682;2023-12-20T04:05:02;7.38;;;3.92;;
74100;SDS011;62462;52.530;21.682;2023-12-20T04:07:28;6.38;;;4.05;;
74100;SDS011;62462;52.530;21.682;2023-12-20T04:09:54;7.00;;;4.30;;
74100;SDS011;62462;52.530;21.682;2023-12-20T04:12:20;7.20;;;4.78;;
74100;SDS011;62462;52.530;21.682;2023-12-20T04:14:46;6.65;;;4.57;;
74100;SDS011;62462;52.530;21.682;2023-12-20T04:17:11;7.35;;;4.90;;
74100;SDS011;62462;52.530;21.682;2023-12-20T04:19:37;8.35;;;4.40;;
74100;SDS011;62462;52.530;21.682;2023-12-20T04:22:03;7.05;;;4.88;;
74100;SDS011;62462;52.530;21.682;2023-12-20T04:24:28;7.53;;;4.95;;
74100;SDS011;62462;52.530;21.682;2023-12-20T04:26:54;5.68;;;4.35;;
74100;SDS011;62462;52.530;21.682;2023-12-20T04:29:20;7.85;;;4.80;;
74100;SDS011;62462;52.530;21.682;2023-12-20T04:31:45;6.88;;;4.40;;
74100;SDS011;62462;52.530;21.682;2023-12-20T04:34:11;7.97;;;5.00;;
74100;SDS011;62462;52.530;21.682;2023-12-20T04:36:37;6.40;;;4.50;;
74100;SDS011;62462;52.530;21.682;2023-12-20T04:39:02;6.68;;;4.22;;
74100;SDS011;62462;52.530;21.682;2023-12-20T04:41:28;6.72;;;4.28;;
74100;SDS011;62462;52.530;21.682;2023-12-20T04:43:54;6.05;;;4.10;;
74100;SDS011;62462;52.530;21.682;2023-12-20T04:46:19;5.70;;;4.18;;
74100;SDS011;62462;52.530;21.682;2023-12-20T04:48:45;6.97;;;4.20;;
74100;SDS011;62462;52.530;21.682;2023-12-20T04:51:11;5.47;;;4.00;;
74100;SDS011;62462;52.530;21.682;2023-12-20T04:53:36;5.55;;;3.58;;
74100;SDS011;62462;52.530;21.682;2023-12-20T04:56:02;5.70;;;3.92;;
74100;SDS011;62462;52.530;21.682;2023-12-20T04:58:28;4.38;;;3.33;;
74100;SDS011;62462;52.530;21.682;2023-12-20T05:00:54;5.13;;;3.72;;
74100;SDS011;62462;52.530;21.682;2023-12-20T05:03:19;5.00;;;3.35;;
74100;SDS011;62462;52.530;21.682;2023-12-20T05:05:45;5.82;;;3.20;;
74100;SDS011;62462;52.530;21.682;2023-12-20T05:08:11;4.35;;;3.30;;
74100;SDS011;62462;52.530;21.682;2023-12-20T05:10:36;4.07;;;2.78;;
74100;SDS011;62462;52.530;21.682;2023-12-20T05:13:02;5.18;;;3.13;;
74100;SDS011;62462;52.530;21.682;2023-12-20T05:15:28;6.05;;;3.20;;
74100;SDS011;62462;52.530;21.682;2023-12-20T05:17:54;4.78;;;3.40;;
74100;SDS011;62462;52.530;21.682;2023-12-20T05:20:19;3.88;;;2.97;;
74100;SDS011;62462;52.530;21.682;2023-12-20T05:22:45;5.75;;;3.00;;
74100;SDS011;62462;52.530;21.682;2023-12-20T05:25:11;4.63;;;3.10;;
74100;SDS011;62462;52.530;21.682;2023-12-20T05:27:36;6.53;;;3.25;;
74100;SDS011;62462;52.530;21.682;2023-12-20T05:30:03;5.60;;;2.83;;
74100;SDS011;62462;52.530;21.682;2023-12-20T05:32:29;6.90;;;2.92;;
74100;SDS011;62462;52.530;21.682;2023-12-20T05:34:56;4.93;;;2.90;;
74100;SDS011;62462;52.530;21.682;2023-12-20T05:37:21;4.63;;;3.15;;
74100;SDS011;62462;52.530;21.682;2023-12-20T05:39:47;7.38;;;4.38;;
74100;SDS011;62462;52.530;21.682;2023-12-20T05:42:13;6.20;;;3.72;;
74100;SDS011;62462;52.530;21.682;2023-12-20T05:44:38;5.95;;;3.40;;
74100;SDS011;62462;52.530;21.682;2023-12-20T05:47:04;5.60;;;3.33;;
74100;SDS011;62462;52.530;21.682;2023-12-20T05:49:30;5.00;;;3.00;;
74100;SDS011;62462;52.530;21.682;2023-12-20T05:51:56;5.53;;;3.45;;
74100;SDS011;62462;52.530;21.682;2023-12-20T05:54:22;4.10;;;2.75;;
74100;SDS011;62462;52.530;21.682;2023-12-20T05:56:48;4.82;;;3.30;;
74100;SDS011;62462;52.530;21.682;2023-12-20T05:59:14;4.72;;;3.40;;
74100;SDS011;62462;52.530;21.682;2023-12-20T06:01:39;4.68;;;3.25;;
74100;SDS011;62462;52.530;21.682;2023-12-20T06:04:05;3.70;;;2.85;;
74100;SDS011;62462;52.530;21.682;2023-12-20T06:06:31;5.10;;;3.70;;
74100;SDS011;62462;52.530;21.682;2023-12-20T06:08:56;6.95;;;4.05;;
74100;SDS011;62462;52.530;21.682;2023-12-20T06:11:22;8.55;;;4.80;;
74100;SDS011;62462;52.530;21.682;2023-12-20T06:13:48;6.30;;;4.20;;
74100;SDS011;62462;52.530;21.682;2023-12-20T06:16:17;8.20;;;4.28;;
74100;SDS011;62462;52.530;21.682;2023-12-20T06:18:43;7.38;;;4.40;;
74100;SDS011;62462;52.530;21.682;2023-12-20T06:21:09;6.72;;;4.47;;
74100;SDS011;62462;52.530;21.682;2023-12-20T06:23:37;6.57;;;4.22;;
74100;SDS011;62462;52.530;21.682;2023-12-20T06:26:03;7.68;;;4.15;;
74100;SDS011;62462;52.530;21.682;2023-12-20T06:28:29;6.72;;;4.20;;
74100;SDS011;62462;52.530;21.682;2023-12-20T06:30:55;6.72;;;4.18;;
74100;SDS011;62462;52.530;21.682;2023-12-20T06:33:22;7.10;;;4.30;;
74100;SDS011;62462;52.530;21.682;2023-12-20T06:35:48;7.38;;;4.68;;
74100;SDS011;62462;52.530;21.682;2023-12-20T06:38:14;6.93;;;3.78;;
74100;SDS011;62462;52.530;21.682;2023-12-20T06:40:40;6.25;;;4.18;;
74100;SDS011;62462;52.530;21.682;2023-12-20T06:43:05;5.07;;;3.60;;
74100;SDS011;62462;52.530;21.682;2023-12-20T06:45:32;6.03;;;3.83;;
74100;SDS011;62462;52.530;21.682;2023-12-20T06:47:57;6.10;;;4.00;;
74100;SDS011;62462;52.530;21.682;2023-12-20T06:50:23;5.35;;;3.65;;
74100;SDS011;62462;52.530;21.682;2023-12-20T06:52:49;6.30;;;3.50;;
74100;SDS011;62462;52.530;21.682;2023-12-20T06:55:15;6.20;;;3.92;;
74100;SDS011;62462;52.530;21.682;2023-12-20T06:57:42;7.00;;;4.43;;
74100;SDS011;62462;52.530;21.682;2023-12-20T07:00:08;6.45;;;4.18;;
74100;SDS011;62462;52.530;21.682;2023-12-20T07:02:35;5.35;;;3.53;;
74100;SDS011;62462;52.530;21.682;2023-12-20T07:05:01;6.05;;;4.05;;
74100;SDS011;62462;52.530;21.682;2023-12-20T07:07:27;6.03;;;4.05;;
74100;SDS011;62462;52.530;21.682;2023-12-20T07:09:53;6.93;;;4.50;;
74100;SDS011;62462;52.530;21.682;2023-12-20T07:12:18;5.22;;;3.80;;
74100;SDS011;62462;52.530;21.682;2023-12-20T07:14:45;7.18;;;3.83;;
74100;SDS011;62462;52.530;21.682;2023-12-20T07:17:11;5.07;;;3.60;;
74100;SDS011;62462;52.530;21.682;2023-12-20T07:19:38;6.43;;;4.10;;
74100;SDS011;62462;52.530;21.682;2023-12-20T07:22:05;5.40;;;3.80;;
74100;SDS011;62462;52.530;21.682;2023-12-20T07:24:32;6.35;;;4.10;;
74100;SDS011;62462;52.530;21.682;2023-12-20T07:26:58;7.28;;;4.30;;
74100;SDS011;62462;52.530;21.682;2023-12-20T07:29:24;4.55;;;3.75;;
74100;SDS011;62462;52.530;21.682;2023-12-20T07:31:50;5.30;;;3.72;;
74100;SDS011;62462;52.530;21.682;2023-12-20T07:34:17;6.57;;;4.03;;
74100;SDS011;62462;52.530;21.682;2023-12-20T07:36:43;7.75;;;4.63;;
74100;SDS011;62462;52.530;21.682;2023-12-20T07:39:08;6.22;;;3.90;;
74100;SDS011;62462;52.530;21.682;2023-12-20T07:41:35;5.93;;;3.72;;
74100;SDS011;62462;52.530;21.682;2023-12-20T07:44:00;7.07;;;4.60;;
74100;SDS011;62462;52.530;21.682;2023-12-20T07:46:26;6.20;;;4.38;;
74100;SDS011;62462;52.530;21.682;2023-12-20T07:48:52;7.65;;;4.88;;
74100;SDS011;62462;52.530;21.682;2023-12-20T07:51:18;5.78;;;4.25;;
74100;SDS011;62462;52.530;21.682;2023-12-20T07:53:44;6.20;;;4.25;;
74100;SDS011;62462;52.530;21.682;2023-12-20T07:56:19;7.82;;;4.53;;
74100;SDS011;62462;52.530;21.682;2023-12-20T07:58:45;5.75;;;3.90;;
74100;SDS011;62462;52.530;21.682;2023-12-20T08:01:13;6.22;;;4.70;;
74100;SDS011;62462;52.530;21.682;2023-12-20T08:03:40;7.10;;;4.55;;
74100;SDS011;62462;52.530;21.682;2023-12-20T08:06:06;7.18;;;4.85;;
74100;SDS011;62462;52.530;21.682;2023-12-20T08:08:32;6.20;;;4.47;;
74100;SDS011;62462;52.530;21.682;2023-12-20T08:10:58;6.00;;;4.45;;
74100;SDS011;62462;52.530;21.682;2023-12-20T08:13:25;7.03;;;4.93;;
74100;SDS011;62462;52.530;21.682;2023-12-20T08:15:51;7.13;;;4.80;;
74100;SDS011;62462;52.530;21.682;2023-12-20T08:18:17;6.90;;;4.50;;
74100;SDS011;62462;52.530;21.682;2023-12-20T08:20:43;6.60;;;5.13;;
74100;SDS011;62462;52.530;21.682;2023-12-20T08:23:09;8.73;;;4.72;;
74100;SDS011;62462;52.530;21.682;2023-12-20T08:25:35;6.22;;;4.10;;
74100;SDS011;62462;52.530;21.682;2023-12-20T08:28:03;6.90;;;4.78;;
74100;SDS011;62462;52.530;21.682;2023-12-20T08:30:29;6.40;;;4.30;;
74100;SDS011;62462;52.530;21.682;2023-12-20T08:32:56;6.93;;;4.68;;
74100;SDS011;62462;52.530;21.682;2023-12-20T08:35:21;5.88;;;4.43;;
74100;SDS011;62462;52.530;21.682;2023-12-20T08:37:47;7.00;;;4.68;;
74100;SDS011;62462;52.530;21.682;2023-12-20T08:40:13;6.22;;;4.05;;
74100;SDS011;62462;52.530;21.682;2023-12-20T08:42:39;8.05;;;4.35;;
74100;SDS011;62462;52.530;21.682;2023-12-20T08:45:04;7.68;;;4.97;;
74100;SDS011;62462;52.530;21.682;2023-12-20T08:47:30;8.15;;;5.07;;
74100;SDS011;62462;52.530;21.682;2023-12-20T08:49:56;9.57;;;4.68;;
74100;SDS011;62462;52.530;21.682;2023-12-20T08:52:24;7.45;;;4.38;;
74100;SDS011;62462;52.530;21.682;2023-12-20T08:54:52;7.15;;;4.35;;
74100;SDS011;62462;52.530;21.682;2023-12-20T08:57:21;7.53;;;4.10;;
74100;SDS011;62462;52.530;21.682;2023-12-20T08:59:50;6.00;;;4.20;;
74100;SDS011;62462;52.530;21.682;2023-12-20T09:02:16;7.10;;;4.18;;
74100;SDS011;62462;52.530;21.682;2023-12-20T09:04:42;5.70;;;4.30;;
74100;SDS011;62462;52.530;21.682;2023-12-20T09:07:21;5.47;;;4.00;;
74100;SDS011;62462;52.530;21.682;2023-12-20T09:09:50;4.65;;;3.40;;
74100;SDS011;62462;52.530;21.682;2023-12-20T09:12:19;7.32;;;4.38;;
74100;SDS011;62462;52.530;21.682;2023-12-20T09:14:49;7.53;;;4.60;;
74100;SDS011;62462;52.530;21.682;2023-12-20T09:17:15;5.93;;;4.60;;
74100;SDS011;62462;52.530;21.682;2023-12-20T09:19:42;6.40;;;4.35;;
74100;SDS011;62462;52.530;21.682;2023-12-20T09:22:11;5.75;;;4.40;;
74100;SDS011;62462;52.530;21.682;2023-12-20T09:24:37;6.57;;;4.70;;
74100;SDS011;62462;52.530;21.682;2023-12-20T09:27:03;6.97;;;4.50;;
74100;SDS011;62462;52.530;21.682;2023-12-20T09:29:30;7.35;;;4.75;;
74100;SDS011;62462;52.530;21.682;2023-12-20T09:31:56;7.72;;;4.53;;
74100;SDS011;62462;52.530;21.682;2023-12-20T09:34:22;7.28;;;4.97;;
74100;SDS011;62462;52.530;21.682;2023-12-20T09:36:49;6.15;;;4.50;;
74100;SDS011;62462;52.530;21.682;2023-12-20T09:39:15;6.07;;;4.43;;
74100;SDS011;62462;52.530;21.682;2023-12-20T09:41:56;7.32;;;4.70;;
74100;SDS011;62462;52.530;21.682;2023-12-20T09:44:26;6.93;;;4.78;;
74100;SDS011;62462;52.530;21.682;2023-12-20T09:46:53;6.10;;;4.40;;
74100;SDS011;62462;52.530;21.682;2023-12-20T09:49:20;5.65;;;4.28;;
74100;SDS011;62462;52.530;21.682;2023-12-20T09:51:47;6.35;;;4.28;;
74100;SDS011;62462;52.530;21.682;2023-12-20T09:54:19;5.97;;;4.13;;
74100;SDS011;62462;52.530;21.682;2023-12-20T09:56:46;5.78;;;4.25;;
74100;SDS011;62462;52.530;21.682;2023-12-20T09:59:12;5.68;;;4.13;;
74100;SDS011;62462;52.530;21.682;2023-12-20T10:01:42;5.22;;;3.63;;
74100;SDS011;62462;52.530;21.682;2023-12-20T10:04:09;6.43;;;4.45;;
74100;SDS011;62462;52.530;21.682;2023-12-20T10:06:39;6.70;;;4.40;;
74100;SDS011;62462;52.530;21.682;2023-12-20T10:09:05;6.55;;;4.07;;
74100;SDS011;62462;52.530;21.682;2023-12-20T10:11:31;5.55;;;4.13;;
74100;SDS011;62462;52.530;21.682;2023-12-20T10:14:00;5.00;;;3.67;;
74100;SDS011;62462;52.530;21.682;2023-12-20T10:16:28;5.95;;;3.60;;
74100;SDS011;62462;52.530;21.682;2023-12-20T10:18:55;6.47;;;4.35;;
74100;SDS011;62462;52.530;21.682;2023-12-20T10:21:22;5.88;;;3.83;;
74100;SDS011;62462;52.530;21.682;2023-12-20T10:23:49;6.07;;;3.83;;
74100;SDS011;62462;52.530;21.682;2023-12-20T10:26:22;6.00;;;3.92;;
74100;SDS011;62462;52.530;21.682;2023-12-20T10:31:28;6.30;;;3.97;;
74100;SDS011;62462;52.530;21.682;2023-12-20T10:33:59;5.80;;;3.50;;
74100;SDS011;62462;52.530;21.682;2023-12-20T10:36:27;6.88;;;3.90;;
74100;SDS011;62462;52.530;21.682;2023-12-20T10:38:57;6.10;;;4.10;;
74100;SDS011;62462;52.530;21.682;2023-12-20T10:41:27;6.60;;;3.88;;
74100;SDS011;62462;52.530;21.682;2023-12-20T10:43:58;5.05;;;3.30;;
74100;SDS011;62462;52.530;21.682;2023-12-20T10:46:28;5.40;;;3.53;;
74100;SDS011;62462;52.530;21.682;2023-12-20T10:48:55;4.82;;;3.65;;
74100;SDS011;62462;52.530;21.682;2023-12-20T10:51:22;4.22;;;3.20;;
74100;SDS011;62462;52.530;21.682;2023-12-20T10:53:49;4.53;;;3.10;;
74100;SDS011;62462;52.530;21.682;2023-12-20T10:56:19;3.78;;;2.85;;
74100;SDS011;62462;52.530;21.682;2023-12-20T10:58:46;3.78;;;2.85;;
74100;SDS011;62462;52.530;21.682;2023-12-20T11:01:13;8.10;;;3.67;;
74100;SDS011;62462;52.530;21.682;2023-12-20T11:03:42;3.85;;;2.83;;
74100;SDS011;62462;52.530;21.682;2023-12-20T11:11:56;3.38;;;2.95;;
74100;SDS011;62462;52.530;21.682;2023-12-20T11:14:35;4.03;;;3.03;;
74100;SDS011;62462;52.530;21.682;2023-12-20T11:17:08;4.72;;;3.05;;
74100;SDS011;62462;52.530;21.682;2023-12-20T11:19:36;5.68;;;3.03;;
74100;SDS011;62462;52.530;21.682;2023-12-20T11:22:03;7.65;;;4.40;;
74100;SDS011;62462;52.530;21.682;2023-12-20T11:24:31;5.43;;;3.20;;
74100;SDS011;62462;52.530;21.682;2023-12-20T11:26:59;4.53;;;3.05;;
74100;SDS011;62462;52.530;21.682;2023-12-20T11:29:32;4.47;;;3.10;;
74100;SDS011;62462;52.530;21.682;2023-12-20T11:32:02;3.50;;;2.85;;
74100;SDS011;62462;52.530;21.682;2023-12-20T11:34:46;6.80;;;3.85;;
74100;SDS011;62462;52.530;21.682;2023-12-20T11:37:12;4.68;;;3.30;;
74100;SDS011;62462;52.530;21.682;2023-12-20T11:39:38;6.10;;;3.53;;
74100;SDS011;62462;52.530;21.682;2023-12-20T11:42:04;5.25;;;3.75;;
74100;SDS011;62462;52.530;21.682;2023-12-20T11:44:31;6.55;;;3.70;;
74100;SDS011;62462;52.530;21.682;2023-12-20T11:46:58;5.22;;;3.65;;
74100;SDS011;62462;52.530;21.682;2023-12-20T11:49:24;6.97;;;4.47;;
74100;SDS011;62462;52.530;21.682;2023-12-20T11:51:50;6.32;;;4.60;;
74100;SDS011;62462;52.530;21.682;2023-12-20T11:54:16;6.63;;;3.85;;
74100;SDS011;62462;52.530;21.682;2023-12-20T11:56:42;6.45;;;4.63;;
74100;SDS011;62462;52.530;21.682;2023-12-20T11:59:08;7.10;;;4.60;;
74100;SDS011;62462;52.530;21.682;2023-12-20T12:01:34;6.55;;;4.45;;
74100;SDS011;62462;52.530;21.682;2023-12-20T12:04:04;6.65;;;4.30;;
74100;SDS011;62462;52.530;21.682;2023-12-20T12:06:30;8.07;;;4.88;;
74100;SDS011;62462;52.530;21.682;2023-12-20T12:08:56;7.78;;;4.55;;
74100;SDS011;62462;52.530;21.682;2023-12-20T12:11:21;7.70;;;5.03;;
74100;SDS011;62462;52.530;21.682;2023-12-20T12:13:48;7.22;;;4.70;;
74100;SDS011;62462;52.530;21.682;2023-12-20T12:16:17;9.98;;;5.45;;
74100;SDS011;62462;52.530;21.682;2023-12-20T12:18:44;9.27;;;5.50;;
74100;SDS011;62462;52.530;21.682;2023-12-20T12:21:10;10.40;;;5.78;;
74100;SDS011;62462;52.530;21.682;2023-12-20T12:23:43;9.48;;;5.65;;
74100;SDS011;62462;52.530;21.682;2023-12-20T12:26:09;10.40;;;6.13;;
74100;SDS011;62462;52.530;21.682;2023-12-20T12:28:34;8.80;;;5.68;;
74100;SDS011;62462;52.530;21.682;2023-12-20T12:31:00;8.82;;;5.32;;
74100;SDS011;62462;52.530;21.682;2023-12-20T12:33:26;9.63;;;6.00;;
74100;SDS011;62462;52.530;21.682;2023-12-20T12:35:53;12.40;;;6.13;;
74100;SDS011;62462;52.530;21.682;2023-12-20T12:38:20;10.95;;;6.15;;
74100;SDS011;62462;52.530;21.682;2023-12-20T12:40:46;8.18;;;5.40;;
74100;SDS011;62462;52.530;21.682;2023-12-20T12:43:12;7.15;;;5.00;;
74100;SDS011;62462;52.530;21.682;2023-12-20T12:45:38;9.75;;;6.00;;
74100;SDS011;62462;52.530;21.682;2023-12-20T12:48:04;9.38;;;5.55;;
74100;SDS011;62462;52.530;21.682;2023-12-20T12:50:30;8.25;;;5.82;;
74100;SDS011;62462;52.530;21.682;2023-12-20T12:52:56;9.15;;;5.72;;
74100;SDS011;62462;52.530;21.682;2023-12-20T12:55:22;9.82;;;6.13;;
74100;SDS011;62462;52.530;21.682;2023-12-20T12:57:48;10.45;;;6.63;;
74100;SDS011;62462;52.530;21.682;2023-12-20T13:00:13;10.25;;;6.40;;
74100;SDS011;62462;52.530;21.682;2023-12-20T13:02:39;11.00;;;6.28;;
74100;SDS011;62462;52.530;21.682;2023-12-20T13:05:07;10.68;;;5.95;;
74100;SDS011;62462;52.530;21.682;2023-12-20T13:07:33;10.65;;;6.78;;
74100;SDS011;62462;52.530;21.682;2023-12-20T13:09:59;7.45;;;5.25;;
74100;SDS011;62462;52.530;21.682;2023-12-20T13:12:25;9.60;;;6.32;;
74100;SDS011;62462;52.530;21.682;2023-12-20T13:14:51;5.72;;;4.38;;
74100;SDS011;62462;52.530;21.682;2023-12-20T13:17:16;6.32;;;3.55;;
74100;SDS011;62462;52.530;21.682;2023-12-20T13:19:42;7.18;;;5.22;;
74100;SDS011;62462;52.530;21.682;2023-12-20T13:22:08;30.70;;;20.23;;
74100;SDS011;62462;52.530;21.682;2023-12-20T13:24:34;23.45;;;13.95;;
74100;SDS011;62462;52.530;21.682;2023-12-20T13:26:59;25.08;;;15.40;;
74100;SDS011;62462;52.530;21.682;2023-12-20T13:29:25;22.80;;;14.82;;
74100;SDS011;62462;52.530;21.682;2023-12-20T13:31:54;17.73;;;11.35;;
74100;SDS011;62462;52.530;21.682;2023-12-20T13:34:20;19.23;;;9.88;;
74100;SDS011;62462;52.530;21.682;2023-12-20T13:36:46;25.38;;;14.38;;
74100;SDS011;62462;52.530;21.682;2023-12-20T13:39:13;11.23;;;8.60;;
74100;SDS011;62462;52.530;21.682;2023-12-20T13:41:39;9.23;;;6.00;;
74100;SDS011;62462;52.530;21.682;2023-12-20T13:44:04;9.38;;;5.13;;
74100;SDS011;62462;52.530;21.682;2023-12-20T13:46:30;10.00;;;6.05;;
74100;SDS011;62462;52.530;21.682;2023-12-20T13:48:56;10.55;;;5.80;;
74100;SDS011;62462;52.530;21.682;2023-12-20T13:51:22;8.32;;;4.93;;
74100;SDS011;62462;52.530;21.682;2023-12-20T13:53:48;8.15;;;4.38;;
74100;SDS011;62462;52.530;21.682;2023-12-20T13:56:14;8.30;;;5.10;;
74100;SDS011;62462;52.530;21.682;2023-12-20T13:58:40;7.57;;;4.55;;
74100;SDS011;62462;52.530;21.682;2023-12-20T14:01:09;6.20;;;4.80;;
74100;SDS011;62462;52.530;21.682;2023-12-20T14:03:36;7.40;;;4.63;;
74100;SDS011;62462;52.530;21.682;2023-12-20T14:06:01;6.63;;;4.80;;
74100;SDS011;62462;52.530;21.682;2023-12-20T14:08:27;9.82;;;5.90;;
74100;SDS011;62462;52.530;21.682;2023-12-20T14:10:53;9.80;;;6.80;;
74100;SDS011;62462;52.530;21.682;2023-12-20T14:13:19;7.82;;;4.82;;
74100;SDS011;62462;52.530;21.682;2023-12-20T14:15:46;7.90;;;4.47;;
74100;SDS011;62462;52.530;21.682;2023-12-20T14:18:12;9.15;;;4.55;;
74100;SDS011;62462;52.530;21.682;2023-12-20T14:20:40;8.30;;;4.72;;
74100;SDS011;62462;52.530;21.682;2023-12-20T14:23:07;7.18;;;4.40;;
74100;SDS011;62462;52.530;21.682;2023-12-20T14:25:34;7.85;;;4.90;;
74100;SDS011;62462;52.530;21.682;2023-12-20T14:28:02;11.02;;;5.53;;
74100;SDS011;62462;52.530;21.682;2023-12-20T14:30:29;6.35;;;4.57;;
74100;SDS011;62462;52.530;21.682;2023-12-20T14:32:54;8.82;;;4.82;;
74100;SDS011;62462;52.530;21.682;2023-12-20T14:35:20;12.35;;;5.53;;
74100;SDS011;62462;52.530;21.682;2023-12-20T14:37:46;7.65;;;4.57;;